Time;durP1;ratioP1;P1;durP2;ratioP2;P2;SDS_P1;SDS_P2;PMS_P1;PMS_P2;Temp;Humidity;BMP_temperature;BMP_pressure;BME280_temperature;BME280_humidity;BME280_pressure;Samples;Min_cycle;Max_cycle;Signal;HPM_P1;HPM_P2
2023/10/29 00:02:16;;;;;;;0.60;0.20;;;12.50;92.50;;;;;;6167208;22;20008;-81
2023/10/29 00:04:42;;;;;;;0.30;0.30;;;12.50;92.50;;;;;;6244774;22;20000;-80
2023/10/29 00:07:08;;;;;;;0.32;0.30;;;12.50;92.50;;;;;;6192058;22;20004;-80
2023/10/29 00:09:33;;;;;;;0.50;0.30;;;12.50;92.50;;;;;;6190288;22;20425;-80
2023/10/29 00:11:59;;;;;;;0.30;0.30;;;12.50;92.50;;;;;;6244528;22;20011;-80
2023/10/29 00:14:25;;;;;;;0.25;0.25;;;12.50;92.50;;;;;;6192013;22;20001;-81
2023/10/29 00:16:51;;;;;;;0.35;0.30;;;12.50;92.50;;;;;;6190490;22;20000;-81
2023/10/29 00:19:17;;;;;;;0.28;0.28;;;12.60;92.50;;;;;;6217232;22;20007;-81
2023/10/29 00:21:42;;;;;;;0.20;0.20;;;12.60;92.50;;;;;;6217790;22;20019;-80
2023/10/29 00:24:08;;;;;;;0.40;0.40;;;12.60;92.50;;;;;;6244693;22;20007;-80
2023/10/29 00:26:34;;;;;;;0.30;0.28;;;12.60;92.50;;;;;;6244825;22;20006;-80
2023/10/29 00:29:00;;;;;;;0.30;0.30;;;12.60;92.50;;;;;;6191897;22;20387;-80
2023/10/29 00:31:26;;;;;;;0.43;0.40;;;12.70;92.50;;;;;;6169035;22;20022;-80
2023/10/29 00:33:53;;;;;;;0.40;0.30;;;12.70;92.50;;;;;;6244733;22;20448;-80
2023/10/29 00:36:19;;;;;;;0.20;0.20;;;12.80;92.50;;;;;;6200000;22;20061;-80
2023/10/29 00:38:45;;;;;;;0.22;0.22;;;12.70;92.50;;;;;;6246244;22;20448;-80
2023/10/29 00:41:11;;;;;;;0.28;0.28;;;12.80;92.50;;;;;;6220623;22;20012;-80
2023/10/29 00:43:39;;;;;;;0.20;0.20;;;12.80;92.50;;;;;;6250822;22;20008;-80
2023/10/29 00:46:06;;;;;;;0.30;0.30;;;12.80;92.40;;;;;;6220897;22;20535;-80
2023/10/29 00:48:33;;;;;;;1.45;0.30;;;12.80;92.50;;;;;;6198535;22;20030;-80
2023/10/29 00:50:59;;;;;;;0.32;0.32;;;12.80;92.50;;;;;;6199960;22;20059;-80
2023/10/29 00:53:25;;;;;;;1.33;0.35;;;12.80;92.50;;;;;;6227836;22;20337;-80
2023/10/29 00:55:51;;;;;;;0.15;0.15;;;12.80;92.50;;;;;;6248970;22;20000;-80
2023/10/29 00:58:19;;;;;;;0.20;0.20;;;12.80;92.40;;;;;;6220866;22;20310;-81
2023/10/29 01:00:46;;;;;;;2.47;0.40;;;12.90;92.50;;;;;;6172920;22;20036;-80
2023/10/29 01:03:11;;;;;;;0.40;0.40;;;12.90;92.40;;;;;;6225997;22;20027;-81
2023/10/29 01:05:38;;;;;;;0.30;0.30;;;13.00;92.40;;;;;;6200350;22;20437;-80
2023/10/29 01:08:05;;;;;;;0.40;0.40;;;13.10;92.40;;;;;;6218563;22;20008;-80
2023/10/29 01:10:32;;;;;;;0.40;0.38;;;13.10;92.40;;;;;;6169767;22;20016;-81
2023/10/29 01:12:58;;;;;;;0.60;0.40;;;13.00;92.30;;;;;;6216752;22;20123;-80
2023/10/29 01:15:23;;;;;;;0.75;0.30;;;13.00;92.30;;;;;;6247582;22;20328;-80
2023/10/29 01:17:49;;;;;;;0.57;0.20;;;13.10;92.30;;;;;;6247174;22;20321;-80
2023/10/29 01:20:15;;;;;;;0.20;0.20;;;13.20;92.30;;;;;;6251328;22;20028;-80
2023/10/29 01:22:41;;;;;;;0.38;0.30;;;13.20;92.30;;;;;;6220606;23;20051;-80
2023/10/29 01:25:09;;;;;;;0.60;0.40;;;13.20;92.20;;;;;;6221968;22;20020;-80
2023/10/29 01:27:36;;;;;;;0.20;0.20;;;13.30;92.30;;;;;;6219059;22;20008;-80
2023/10/29 01:30:03;;;;;;;0.40;0.40;;;13.30;92.30;;;;;;6219930;22;20009;-81
2023/10/29 01:32:29;;;;;;;0.40;0.40;;;13.30;92.20;;;;;;6220112;22;20380;-80
2023/10/29 01:34:54;;;;;;;0.95;0.40;;;13.30;92.20;;;;;;6192881;23;20018;-80
2023/10/29 01:37:20;;;;;;;0.30;0.30;;;13.30;92.20;;;;;;6194793;22;20027;-81
2023/10/29 01:39:46;;;;;;;0.40;0.40;;;13.30;92.20;;;;;;6168965;22;20043;-81
2023/10/29 01:42:11;;;;;;;0.73;0.32;;;13.30;92.20;;;;;;6219570;22;20091;-81
2023/10/29 01:44:37;;;;;;;0.63;0.52;;;13.30;92.20;;;;;;6249530;22;20008;-80
2023/10/29 01:47:03;;;;;;;0.25;0.25;;;13.30;92.30;;;;;;6218393;22;20006;-81
2023/10/29 01:49:30;;;;;;;0.50;0.30;;;13.20;92.30;;;;;;6246298;22;20092;-80
2023/10/29 01:51:55;;;;;;;0.25;0.25;;;13.20;92.30;;;;;;6246056;22;20004;-80
2023/10/29 01:54:22;;;;;;;0.77;0.38;;;13.20;92.30;;;;;;6244735;22;20009;-81
2023/10/29 01:56:48;;;;;;;0.20;0.20;;;13.30;92.40;;;;;;6216740;22;20452;-80
2023/10/29 01:59:15;;;;;;;0.50;0.30;;;13.40;92.30;;;;;;6219842;22;20077;-80
2023/10/29 02:01:41;;;;;;;1.08;0.30;;;13.40;92.30;;;;;;6195003;22;20015;-81
2023/10/29 02:04:09;;;;;;;0.40;0.40;;;13.40;92.20;;;;;;6195044;22;20008;-81
2023/10/29 02:06:39;;;;;;;0.50;0.40;;;13.50;92.20;;;;;;6221519;22;20005;-80
2023/10/29 02:09:05;;;;;;;0.22;0.22;;;13.40;92.10;;;;;;6248490;22;20055;-80
2023/10/29 02:11:31;;;;;;;0.35;0.35;;;13.50;92.10;;;;;;6196463;22;19997;-80
2023/10/29 02:13:56;;;;;;;0.70;0.35;;;13.50;92.10;;;;;;6251517;22;20380;-80
2023/10/29 02:16:23;;;;;;;0.40;0.40;;;13.60;92.10;;;;;;6198588;22;20031;-80
2023/10/29 02:18:49;;;;;;;0.55;0.40;;;13.60;92.10;;;;;;6198393;22;20075;-81
2023/10/29 02:21:15;;;;;;;0.40;0.30;;;13.60;92.00;;;;;;6204366;22;20322;-81
2023/10/29 02:23:40;;;;;;;0.40;0.40;;;13.70;92.00;;;;;;6198865;22;20043;-80
2023/10/29 02:26:06;;;;;;;0.57;0.50;;;13.70;91.90;;;;;;6254983;22;20094;-82
2023/10/29 02:28:32;;;;;;;0.30;0.30;;;13.70;91.90;;;;;;6203919;23;20008;-81
2023/10/29 02:30:58;;;;;;;0.30;0.28;;;13.80;91.90;;;;;;6232458;22;20020;-81
2023/10/29 02:33:23;;;;;;;0.50;0.50;;;13.80;91.90;;;;;;6205019;22;20000;-80
2023/10/29 02:35:49;;;;;;;0.55;0.40;;;13.80;91.90;;;;;;6265114;22;20314;-81
2023/10/29 02:38:18;;;;;;;0.73;0.50;;;13.90;91.90;;;;;;6205701;22;20413;-81
2023/10/29 02:40:43;;;;;;;0.45;0.30;;;13.90;91.90;;;;;;6184213;22;19985;-81
2023/10/29 02:43:10;;;;;;;0.88;0.50;;;13.90;91.80;;;;;;6234876;22;20004;-82
2023/10/29 02:45:36;;;;;;;0.57;0.38;;;13.90;91.80;;;;;;6215907;22;20004;-83
2023/10/29 02:48:02;;;;;;;0.40;0.40;;;13.90;91.70;;;;;;6208022;23;20043;-81
2023/10/29 02:50:27;;;;;;;0.65;0.45;;;13.90;91.80;;;;;;6263861;22;20020;-81
2023/10/29 02:52:53;;;;;;;0.40;0.40;;;13.90;91.80;;;;;;6200897;22;20000;-82
2023/10/29 02:55:19;;;;;;;1.05;0.50;;;13.90;91.80;;;;;;6210173;22;20016;-81
2023/10/29 02:57:45;;;;;;;2.13;0.70;;;14.00;91.70;;;;;;6267484;22;20031;-81
2023/10/29 03:00:12;;;;;;;0.45;0.43;;;14.00;91.60;;;;;;6203537;23;20001;-80
2023/10/29 03:02:38;;;;;;;0.50;0.40;;;13.90;91.70;;;;;;6233635;22;20095;-81
2023/10/29 03:05:05;;;;;;;1.55;0.50;;;14.00;91.70;;;;;;6228079;22;20017;-81
2023/10/29 03:07:30;;;;;;;0.95;0.40;;;14.00;91.70;;;;;;6227600;22;20310;-80
2023/10/29 03:09:57;;;;;;;1.10;0.70;;;14.00;91.60;;;;;;6202937;22;20020;-80
2023/10/29 03:12:22;;;;;;;1.48;0.80;;;14.00;91.60;;;;;;6205025;22;20023;-80
2023/10/29 03:14:48;;;;;;;1.15;0.40;;;14.10;91.60;;;;;;6230859;22;19996;-82
2023/10/29 03:17:14;;;;;;;0.50;0.50;;;14.10;91.40;;;;;;6204842;22;20039;-80
2023/10/29 03:19:39;;;;;;;0.95;0.40;;;14.10;91.40;;;;;;6204792;22;20027;-80
2023/10/29 03:22:05;;;;;;;0.65;0.40;;;14.10;91.50;;;;;;6250963;22;20008;-80
2023/10/29 03:24:32;;;;;;;0.77;0.40;;;14.10;91.50;;;;;;6255250;22;20043;-80
2023/10/29 03:26:57;;;;;;;0.63;0.55;;;14.00;91.50;;;;;;6222312;22;20013;-80
2023/10/29 03:29:23;;;;;;;0.57;0.50;;;14.10;91.50;;;;;;6198328;22;20294;-81
2023/10/29 03:31:48;;;;;;;1.27;0.60;;;14.10;91.50;;;;;;6198878;22;20008;-81
2023/10/29 03:34:14;;;;;;;0.45;0.45;;;14.10;91.50;;;;;;6219261;22;20004;-81
2023/10/29 03:36:40;;;;;;;0.40;0.40;;;14.10;91.40;;;;;;6196832;22;20098;-81
2023/10/29 03:39:05;;;;;;;0.73;0.35;;;14.10;91.40;;;;;;6194592;22;20011;-81
2023/10/29 03:41:31;;;;;;;0.55;0.30;;;14.00;91.40;;;;;;6197111;22;20004;-80
2023/10/29 03:43:57;;;;;;;0.30;0.30;;;14.00;91.50;;;;;;6221411;22;20001;-79
2023/10/29 03:46:23;;;;;;;0.80;0.47;;;14.00;91.40;;;;;;6221828;23;20362;-80
2023/10/29 03:48:48;;;;;;;0.65;0.43;;;14.10;91.50;;;;;;6221389;22;20400;-80
2023/10/29 03:51:15;;;;;;;0.85;0.60;;;14.10;91.40;;;;;;6170976;22;20094;-79
2023/10/29 03:53:40;;;;;;;0.30;0.30;;;14.10;91.30;;;;;;6247232;22;20000;-80
2023/10/29 03:56:06;;;;;;;1.20;0.50;;;14.10;91.20;;;;;;6195129;22;20509;-79
2023/10/29 03:58:32;;;;;;;0.57;0.50;;;14.20;91.20;;;;;;6220848;23;19996;-80
2023/10/29 04:01:01;;;;;;;1.42;0.50;;;14.10;91.20;;;;;;6219166;22;20012;-79
2023/10/29 04:03:28;;;;;;;0.75;0.60;;;14.20;91.10;;;;;;6222692;22;20089;-80
2023/10/29 04:05:54;;;;;;;0.65;0.45;;;14.20;91.10;;;;;;6217767;22;20007;-79
2023/10/29 04:08:20;;;;;;;1.27;0.68;;;14.20;91.10;;;;;;6217738;22;20020;-79
2023/10/29 04:10:45;;;;;;;1.27;0.50;;;14.10;91.10;;;;;;6244691;22;20444;-80
2023/10/29 04:13:11;;;;;;;1.60;0.40;;;14.10;91.10;;;;;;6193047;22;20058;-80
2023/10/29 04:15:37;;;;;;;0.30;0.30;;;14.20;91.10;;;;;;6217915;22;20416;-79
2023/10/29 04:18:03;;;;;;;0.50;0.50;;;14.10;91.10;;;;;;6217785;22;20310;-78
2023/10/29 04:20:28;;;;;;;0.55;0.30;;;14.10;91.10;;;;;;6190565;22;20341;-80
2023/10/29 04:22:54;;;;;;;0.68;0.50;;;14.00;91.10;;;;;;6216976;22;20283;-79
2023/10/29 04:25:20;;;;;;;0.35;0.30;;;14.10;91.10;;;;;;6217091;22;20452;-79
2023/10/29 04:27:46;;;;;;;0.85;0.40;;;14.10;91.10;;;;;;6217198;22;20003;-79
2023/10/29 04:30:11;;;;;;;0.57;0.30;;;14.10;91.10;;;;;;6192303;22;20020;-79
2023/10/29 04:32:37;;;;;;;0.52;0.40;;;14.10;91.10;;;;;;6244432;22;20007;-79
2023/10/29 04:35:03;;;;;;;0.20;0.20;;;14.10;91.10;;;;;;6215992;22;20000;-79
2023/10/29 04:37:29;;;;;;;0.55;0.43;;;14.10;91.10;;;;;;6217092;22;20004;-80
2023/10/29 04:39:55;;;;;;;0.43;0.30;;;14.00;91.10;;;;;;6244154;22;20016;-79
2023/10/29 04:42:20;;;;;;;0.35;0.28;;;14.10;91.10;;;;;;6191914;22;20005;-78
2023/10/29 04:44:46;;;;;;;0.40;0.30;;;14.00;91.10;;;;;;6220343;22;20005;-79
2023/10/29 04:47:12;;;;;;;0.40;0.40;;;14.00;91.10;;;;;;6185834;22;20080;-78
2023/10/29 04:49:37;;;;;;;0.60;0.32;;;14.00;91.10;;;;;;6216923;22;20020;-80
2023/10/29 04:52:03;;;;;;;0.57;0.30;;;14.00;91.10;;;;;;6216956;22;20054;-80
2023/10/29 04:54:29;;;;;;;1.23;0.52;;;14.00;91.10;;;;;;6244177;22;20000;-79
2023/10/29 04:56:55;;;;;;;0.50;0.40;;;14.00;91.10;;;;;;6244005;22;20004;-79
2023/10/29 04:59:20;;;;;;;0.63;0.40;;;14.10;91.10;;;;;;6191788;22;20018;-79
2023/10/29 05:01:46;;;;;;;0.90;0.50;;;14.10;91.10;;;;;;6217290;22;20502;-80
2023/10/29 05:04:12;;;;;;;0.68;0.40;;;14.00;91.00;;;;;;6217072;22;20099;-81
2023/10/29 05:06:37;;;;;;;0.43;0.30;;;14.00;91.00;;;;;;6192630;22;20035;-80
2023/10/29 05:09:03;;;;;;;0.50;0.30;;;13.90;91.10;;;;;;6168545;22;20008;-81
2023/10/29 05:11:31;;;;;;;0.80;0.30;;;13.90;91.10;;;;;;6182997;22;20023;-81
2023/10/29 05:13:56;;;;;;;0.30;0.22;;;13.80;91.20;;;;;;6186472;22;20050;-82
2023/10/29 05:16:22;;;;;;;0.60;0.30;;;13.80;91.30;;;;;;6262115;22;20000;-82
2023/10/29 05:18:48;;;;;;;0.47;0.20;;;13.70;91.40;;;;;;6210509;23;20012;-81
2023/10/29 05:21:14;;;;;;;0.38;0.30;;;13.70;91.50;;;;;;6222686;22;20083;-81
2023/10/29 05:23:39;;;;;;;0.20;0.20;;;13.60;91.50;;;;;;6253643;22;20024;-82
2023/10/29 05:26:05;;;;;;;0.80;0.20;;;13.60;91.60;;;;;;6247447;22;20027;-81
2023/10/29 05:28:31;;;;;;;0.57;0.38;;;13.50;91.60;;;;;;6198842;22;19996;-81
2023/10/29 05:30:56;;;;;;;0.55;0.20;;;13.40;91.70;;;;;;6222593;22;20020;-82
2023/10/29 05:33:22;;;;;;;0.75;0.30;;;13.40;91.70;;;;;;6248179;22;19996;-81
2023/10/29 05:35:48;;;;;;;0.20;0.20;;;13.40;91.70;;;;;;6246898;22;19996;-82
2023/10/29 05:38:13;;;;;;;0.40;0.30;;;13.40;91.80;;;;;;6219136;22;20000;-82
2023/10/29 05:40:39;;;;;;;0.20;0.20;;;13.40;91.80;;;;;;6248128;22;20000;-80
2023/10/29 05:43:05;;;;;;;0.40;0.25;;;13.30;91.70;;;;;;6248580;22;20000;-79
2023/10/29 05:45:30;;;;;;;0.30;0.17;;;13.30;91.70;;;;;;6227247;23;20494;-79
2023/10/29 05:47:56;;;;;;;0.85;0.50;;;13.30;91.70;;;;;;6197672;23;20011;-78
2023/10/29 05:50:23;;;;;;;1.00;0.30;;;13.40;92.00;;;;;;6249984;22;20034;-81
2023/10/29 05:52:49;;;;;;;2.40;0.32;;;13.40;91.70;;;;;;6201042;22;20008;-78
2023/10/29 05:55:15;;;;;;;2.00;0.60;;;13.50;91.70;;;;;;6247989;22;20109;-80
2023/10/29 05:57:40;;;;;;;1.92;0.45;;;13.30;91.70;;;;;;6250474;22;20003;-80
2023/10/29 06:00:07;;;;;;;1.45;0.45;;;13.50;91.60;;;;;;6224182;22;20012;-79
2023/10/29 06:02:33;;;;;;;0.65;0.40;;;13.40;91.50;;;;;;6227040;22;20019;-79
2023/10/29 06:04:59;;;;;;;0.38;0.30;;;13.40;91.50;;;;;;6222918;22;20008;-81
2023/10/29 06:07:24;;;;;;;0.30;0.30;;;13.40;91.40;;;;;;6197864;22;20377;-80
2023/10/29 06:09:50;;;;;;;1.00;0.40;;;13.50;91.40;;;;;;6247547;22;20012;-80
2023/10/29 06:12:18;;;;;;;0.30;0.30;;;13.40;91.40;;;;;;6192479;22;20061;-79
2023/10/29 06:14:45;;;;;;;0.90;0.30;;;13.30;91.40;;;;;;6192340;22;20007;-79
2023/10/29 06:17:11;;;;;;;0.95;0.40;;;13.30;91.40;;;;;;6245023;22;20019;-80
2023/10/29 06:19:37;;;;;;;0.57;0.20;;;13.40;91.40;;;;;;6217810;22;20044;-79
2023/10/29 06:22:05;;;;;;;0.52;0.40;;;13.40;91.30;;;;;;6169194;22;20376;-79
2023/10/29 06:24:31;;;;;;;1.60;0.40;;;13.50;91.30;;;;;;6170771;22;20371;-78
2023/10/29 06:26:57;;;;;;;0.50;0.30;;;13.40;91.20;;;;;;6228103;22;20000;-78
2023/10/29 06:29:23;;;;;;;0.45;0.30;;;13.50;91.20;;;;;;6198921;22;20041;-78
2023/10/29 06:31:48;;;;;;;0.30;0.20;;;13.40;91.10;;;;;;6197160;22;20046;-78
2023/10/29 06:34:14;;;;;;;0.88;0.30;;;13.40;91.10;;;;;;6198399;22;20066;-78
2023/10/29 06:36:40;;;;;;;1.20;0.30;;;13.30;91.20;;;;;;6247112;22;20024;-78
2023/10/29 06:39:06;;;;;;;0.45;0.38;;;13.30;91.20;;;;;;6202351;22;20091;-81
2023/10/29 06:41:31;;;;;;;0.73;0.20;;;13.30;91.20;;;;;;6216895;22;20012;-77
2023/10/29 06:43:57;;;;;;;1.48;0.50;;;13.20;91.20;;;;;;6218200;22;20361;-78
2023/10/29 06:46:23;;;;;;;0.13;0.13;;;13.30;91.20;;;;;;6218460;22;20004;-77
2023/10/29 06:48:48;;;;;;;1.90;0.50;;;13.30;91.10;;;;;;6191378;22;20011;-78
2023/10/29 06:51:15;;;;;;;0.88;0.50;;;13.20;91.10;;;;;;6219689;23;20016;-78
2023/10/29 06:53:41;;;;;;;0.28;0.28;;;13.20;91.10;;;;;;6247367;22;20043;-77
2023/10/29 06:56:07;;;;;;;1.90;0.38;;;13.20;91.10;;;;;;6243700;22;20020;-77
2023/10/29 06:58:33;;;;;;;0.20;0.20;;;13.20;91.10;;;;;;6219848;22;19996;-79
2023/10/29 07:01:08;;;;;;;0.73;0.30;;;13.20;91.10;;;;;;6223831;23;20015;-78
2023/10/29 07:03:37;;;;;;;0.30;0.30;;;13.10;91.00;;;;;;6218995;22;20302;-78
2023/10/29 07:06:06;;;;;;;0.63;0.25;;;13.10;91.00;;;;;;6222530;22;20000;-78
2023/10/29 07:08:32;;;;;;;0.80;0.30;;;13.20;91.10;;;;;;6221456;22;20083;-77
2023/10/29 07:10:58;;;;;;;0.73;0.20;;;13.10;91.10;;;;;;6222416;22;20016;-77
2023/10/29 07:13:24;;;;;;;0.45;0.20;;;13.10;91.10;;;;;;6249817;22;20324;-77
2023/10/29 07:15:51;;;;;;;0.30;0.30;;;13.00;91.10;;;;;;6249864;22;20000;-77
2023/10/29 07:18:16;;;;;;;0.55;0.32;;;13.10;91.10;;;;;;6202011;22;20417;-77
2023/10/29 07:20:42;;;;;;;0.20;0.20;;;13.10;91.10;;;;;;6225613;22;20096;-76
2023/10/29 07:23:08;;;;;;;1.15;0.35;;;13.10;91.10;;;;;;6224251;22;20010;-77
2023/10/29 07:25:34;;;;;;;1.63;0.30;;;13.20;91.00;;;;;;6250104;22;20096;-78
2023/10/29 07:28:01;;;;;;;0.70;0.30;;;13.30;91.00;;;;;;6219577;22;20036;-76
2023/10/29 07:30:27;;;;;;;3.10;0.43;;;13.30;90.90;;;;;;6194248;22;20019;-77
2023/10/29 07:32:53;;;;;;;0.50;0.38;;;13.40;90.80;;;;;;6220250;22;20136;-78
2023/10/29 07:35:19;;;;;;;0.85;0.50;;;13.30;90.80;;;;;;6217381;22;20032;-76
2023/10/29 07:37:45;;;;;;;1.23;0.40;;;13.40;90.70;;;;;;6223309;22;20077;-78
2023/10/29 07:40:11;;;;;;;0.77;0.50;;;13.40;90.70;;;;;;6225558;22;20016;-77
2023/10/29 07:42:36;;;;;;;1.48;0.40;;;13.40;90.70;;;;;;6218424;22;20016;-77
2023/10/29 07:45:02;;;;;;;0.65;0.43;;;13.40;90.70;;;;;;6220695;23;20503;-77
2023/10/29 07:47:28;;;;;;;1.08;0.57;;;13.40;90.70;;;;;;6218485;22;20016;-77
2023/10/29 07:49:54;;;;;;;0.63;0.40;;;13.40;90.70;;;;;;6194513;22;20421;-76
2023/10/29 07:52:20;;;;;;;0.55;0.30;;;13.50;90.70;;;;;;6182788;22;20000;-77
2023/10/29 07:54:46;;;;;;;1.55;0.32;;;13.50;90.60;;;;;;6200955;22;20004;-77
2023/10/29 07:57:12;;;;;;;2.20;0.40;;;13.50;90.60;;;;;;6168995;22;20036;-78
2023/10/29 07:59:37;;;;;;;1.38;0.43;;;13.50;90.60;;;;;;6196822;22;20050;-78
2023/10/29 08:02:03;;;;;;;1.08;0.50;;;13.40;90.60;;;;;;6219226;22;20013;-76
2023/10/29 08:04:30;;;;;;;0.93;0.30;;;13.50;90.60;;;;;;6250926;22;20290;-78
2023/10/29 08:06:55;;;;;;;2.10;0.50;;;13.50;90.50;;;;;;6250064;22;20012;-77
2023/10/29 08:09:22;;;;;;;1.95;0.50;;;13.50;90.50;;;;;;6209682;22;19988;-77
2023/10/29 08:11:48;;;;;;;0.95;0.40;;;13.40;90.50;;;;;;6196394;22;20077;-77
2023/10/29 08:14:14;;;;;;;1.55;0.45;;;13.40;90.60;;;;;;6228229;22;19999;-77
2023/10/29 08:16:41;;;;;;;1.25;0.40;;;13.40;90.60;;;;;;6229402;22;20008;-77
2023/10/29 08:19:07;;;;;;;0.80;0.50;;;13.40;90.50;;;;;;6205345;22;20015;-77
2023/10/29 08:21:33;;;;;;;2.47;0.40;;;13.40;90.60;;;;;;6226250;22;20011;-77
2023/10/29 08:23:59;;;;;;;1.60;0.50;;;13.40;90.60;;;;;;6228836;22;20012;-77
2023/10/29 08:26:26;;;;;;;0.85;0.45;;;13.40;90.60;;;;;;6222520;22;20004;-77
2023/10/29 08:28:52;;;;;;;0.93;0.35;;;13.50;90.60;;;;;;6252575;22;20008;-77
2023/10/29 08:31:18;;;;;;;0.95;0.52;;;13.50;90.60;;;;;;6251286;22;20065;-77
2023/10/29 08:33:44;;;;;;;1.33;0.30;;;13.50;90.50;;;;;;6229074;22;20062;-76
2023/10/29 08:36:10;;;;;;;1.05;0.40;;;13.60;90.50;;;;;;6257875;22;20008;-76
2023/10/29 08:38:36;;;;;;;1.52;0.65;;;13.70;90.40;;;;;;6228550;22;20011;-76
2023/10/29 08:41:14;;;;;;;1.23;0.60;;;13.70;90.30;;;;;;6231767;22;20073;-76
2023/10/29 08:43:39;;;;;;;1.38;0.38;;;13.70;90.20;;;;;;6222472;22;20004;-76
2023/10/29 08:46:05;;;;;;;1.00;0.45;;;13.80;90.20;;;;;;6258327;22;20015;-76
2023/10/29 08:48:31;;;;;;;0.70;0.50;;;13.80;90.10;;;;;;6252920;22;20016;-75
2023/10/29 08:50:57;;;;;;;1.65;0.60;;;13.80;90.10;;;;;;6224301;22;20333;-76
2023/10/29 08:53:22;;;;;;;2.05;0.40;;;13.80;90.10;;;;;;6173411;22;20080;-76
2023/10/29 08:55:48;;;;;;;2.45;0.60;;;13.90;90.10;;;;;;6181371;22;20011;-76
2023/10/29 08:58:14;;;;;;;1.23;0.50;;;13.90;90.10;;;;;;6226798;22;20329;-78
2023/10/29 09:00:40;;;;;;;1.25;0.50;;;13.90;90.00;;;;;;6238723;22;20008;-76
2023/10/29 09:03:06;;;;;;;1.25;0.60;;;14.00;90.00;;;;;;6206032;22;20016;-76
2023/10/29 09:05:32;;;;;;;0.95;0.50;;;14.00;89.90;;;;;;6232525;22;20044;-75
2023/10/29 09:07:57;;;;;;;2.75;0.80;;;14.10;89.80;;;;;;6251306;22;20428;-75
2023/10/29 09:10:23;;;;;;;2.30;0.55;;;14.10;89.80;;;;;;6228413;22;20008;-74
2023/10/29 09:12:49;;;;;;;2.88;0.60;;;14.10;89.60;;;;;;6248717;22;20020;-75
2023/10/29 09:15:15;;;;;;;1.98;0.55;;;14.20;89.40;;;;;;6246289;22;20502;-75
2023/10/29 09:17:41;;;;;;;2.75;0.73;;;14.30;89.10;;;;;;6195240;22;20008;-74
2023/10/29 09:20:08;;;;;;;1.73;0.70;;;14.30;89.00;;;;;;6225181;22;20020;-75
2023/10/29 09:22:33;;;;;;;1.65;0.50;;;14.30;88.80;;;;;;6228343;22;20012;-75
2023/10/29 09:24:59;;;;;;;1.63;0.73;;;14.40;88.80;;;;;;6209968;22;20071;-75
2023/10/29 09:27:25;;;;;;;1.77;0.65;;;14.30;88.70;;;;;;6198466;22;20011;-75
2023/10/29 09:29:50;;;;;;;2.53;0.50;;;14.30;88.70;;;;;;6205936;22;20071;-75
2023/10/29 09:32:16;;;;;;;1.55;0.60;;;14.30;88.70;;;;;;6200049;22;20004;-74
2023/10/29 09:34:42;;;;;;;0.80;0.40;;;14.40;88.60;;;;;;6257850;22;19996;-75
2023/10/29 09:37:08;;;;;;;1.40;0.60;;;14.50;88.50;;;;;;6265331;22;19996;-76
2023/10/29 09:39:33;;;;;;;1.38;0.60;;;14.40;88.40;;;;;;6231414;22;20008;-76
2023/10/29 09:42:08;;;;;;;1.75;0.60;;;14.60;88.40;;;;;;6216980;23;20000;-74
2023/10/29 09:44:34;;;;;;;2.58;0.60;;;14.60;88.20;;;;;;6260766;22;19996;-75
2023/10/29 09:47:12;;;;;;;3.10;0.60;;;14.50;88.10;;;;;;6234196;22;20035;-75
2023/10/29 09:49:38;;;;;;;2.28;0.80;;;14.60;87.80;;;;;;6232075;23;20047;-75
2023/10/29 09:52:05;;;;;;;1.85;0.50;;;14.60;87.50;;;;;;6209544;22;20003;-76
2023/10/29 09:54:30;;;;;;;0.50;0.50;;;14.60;87.40;;;;;;6235740;22;19997;-74
2023/10/29 09:56:56;;;;;;;1.02;0.50;;;14.60;87.50;;;;;;6259414;22;20076;-76
2023/10/29 09:59:23;;;;;;;4.50;0.80;;;14.50;87.40;;;;;;6229091;22;20012;-75
2023/10/29 10:01:48;;;;;;;1.90;0.70;;;14.50;87.40;;;;;;6206498;22;20028;-75
2023/10/29 10:04:14;;;;;;;1.55;0.60;;;14.50;87.40;;;;;;6258916;22;20460;-75
2023/10/29 10:06:42;;;;;;;1.70;0.60;;;14.60;87.40;;;;;;6235858;22;20012;-75
2023/10/29 10:09:08;;;;;;;2.53;0.77;;;14.60;87.20;;;;;;6230478;22;20050;-75
2023/10/29 10:11:33;;;;;;;0.75;0.50;;;14.70;86.90;;;;;;6265196;22;20010;-75
2023/10/29 10:13:59;;;;;;;1.33;0.60;;;14.80;86.70;;;;;;6264185;22;19988;-75
2023/10/29 10:16:25;;;;;;;1.33;0.68;;;14.80;86.50;;;;;;6238013;22;20015;-76
2023/10/29 10:18:53;;;;;;;2.45;0.55;;;14.80;86.40;;;;;;6238935;22;19992;-76
2023/10/29 10:21:21;;;;;;;1.13;0.40;;;14.70;86.40;;;;;;6236323;22;20035;-76
2023/10/29 10:23:53;;;;;;;0.82;0.45;;;14.70;86.40;;;;;;6251320;22;20004;-76
2023/10/29 10:26:28;;;;;;;1.75;0.40;;;14.70;86.50;;;;;;6232652;22;20035;-75
2023/10/29 10:28:55;;;;;;;2.05;0.55;;;14.70;86.50;;;;;;6235201;22;20006;-75
2023/10/29 10:31:22;;;;;;;1.95;0.63;;;14.60;86.50;;;;;;6201368;22;20567;-75
2023/10/29 10:33:48;;;;;;;2.25;0.80;;;14.60;86.50;;;;;;6230734;22;20005;-75
2023/10/29 10:36:14;;;;;;;2.63;0.60;;;14.70;86.50;;;;;;6206484;22;20008;-75
2023/10/29 10:38:57;;;;;;;1.77;0.50;;;14.60;86.20;;;;;;6224643;23;20007;-75
2023/10/29 10:41:22;;;;;;;2.78;0.77;;;14.60;86.10;;;;;;6226398;22;20420;-76
2023/10/29 10:44:07;;;;;;;1.95;0.73;;;14.60;86.10;;;;;;6250323;22;20054;-76
2023/10/29 10:46:36;;;;;;;1.38;0.52;;;14.60;86.00;;;;;;6225279;22;20404;-76
2023/10/29 10:49:06;;;;;;;1.63;0.60;;;14.50;86.00;;;;;;6228738;22;20004;-76
2023/10/29 10:51:34;;;;;;;1.77;0.68;;;14.60;86.00;;;;;;6223068;22;20047;-75
2023/10/29 10:54:02;;;;;;;1.65;0.55;;;14.50;86.00;;;;;;6219239;22;20047;-75
2023/10/29 10:56:32;;;;;;;2.95;0.50;;;14.50;86.00;;;;;;6224319;22;20004;-75
2023/10/29 10:58:59;;;;;;;1.23;0.40;;;14.50;86.00;;;;;;6171787;22;20008;-76
2023/10/29 11:01:25;;;;;;;0.93;0.40;;;14.50;86.00;;;;;;6223703;22;20012;-76
2023/10/29 11:03:53;;;;;;;1.08;0.43;;;14.50;86.00;;;;;;6226519;22;20012;-75
2023/10/29 11:06:21;;;;;;;1.58;0.47;;;14.60;86.00;;;;;;6227680;22;20064;-77
2023/10/29 11:08:47;;;;;;;0.77;0.30;;;14.50;85.80;;;;;;6225657;22;20360;-75
2023/10/29 11:11:14;;;;;;;3.03;0.68;;;14.60;85.80;;;;;;6201258;22;20019;-75
2023/10/29 11:13:40;;;;;;;1.38;0.55;;;14.60;85.80;;;;;;6226675;22;20009;-75
2023/10/29 11:16:22;;;;;;;1.40;0.40;;;14.50;85.80;;;;;;6221907;22;20062;-75
2023/10/29 11:18:48;;;;;;;0.95;0.40;;;14.50;85.90;;;;;;6231994;22;20036;-76
2023/10/29 11:21:32;;;;;;;0.68;0.30;;;14.40;85.80;;;;;;6224202;22;20000;-75
2023/10/29 11:24:18;;;;;;;1.50;0.50;;;14.50;85.80;;;;;;6231038;22;20010;-77
2023/10/29 11:26:44;;;;;;;1.00;0.50;;;14.50;85.80;;;;;;6227137;22;20024;-76
2023/10/29 11:29:45;;;;;;;0.75;0.38;;;14.50;85.80;;;;;;6250571;22;20455;-75
2023/10/29 11:32:26;;;;;;;0.93;0.40;;;14.40;85.70;;;;;;6229106;22;20012;-76
2023/10/29 11:35:06;;;;;;;;;;;14.50;85.80;;;;;;6179450;22;20234;-75
2023/10/29 11:37:36;;;;;;;0.30;0.30;;;14.50;85.70;;;;;;6257795;22;19913;-76
2023/10/29 11:40:28;;;;;;;0.98;0.50;;;14.40;85.70;;;;;;6226274;22;20005;-75
2023/10/29 11:42:57;;;;;;;1.90;0.50;;;14.50;85.70;;;;;;6226424;22;20019;-75
2023/10/29 11:45:57;;;;;;;1.10;0.45;;;14.40;85.60;;;;;;6200937;22;20012;-75
2023/10/29 11:48:24;;;;;;;0.70;0.35;;;14.50;85.80;;;;;;6225357;22;20024;-75
2023/10/29 11:51:18;;;;;;;0.52;0.22;;;14.50;85.80;;;;;;6227667;22;20487;-75
2023/10/29 11:53:44;;;;;;;1.52;0.60;;;14.50;85.70;;;;;;6204863;23;20020;-75
2023/10/29 11:56:11;;;;;;;0.50;0.30;;;14.50;85.60;;;;;;6234613;22;20008;-75
2023/10/29 11:58:37;;;;;;;1.48;0.40;;;14.50;85.60;;;;;;6231837;22;20012;-76
2023/10/29 12:01:04;;;;;;;1.60;0.60;;;14.50;85.60;;;;;;6203291;23;20012;-76
2023/10/29 12:03:30;;;;;;;1.17;0.52;;;14.50;85.60;;;;;;6259980;22;20012;-75
2023/10/29 12:05:56;;;;;;;0.63;0.32;;;14.60;85.70;;;;;;6230428;23;20019;-76
2023/10/29 12:08:23;;;;;;;1.40;0.40;;;14.60;85.80;;;;;;6230343;22;20008;-76
2023/10/29 12:10:50;;;;;;;1.83;0.60;;;14.60;85.80;;;;;;6255035;22;20004;-76
2023/10/29 12:13:18;;;;;;;1.42;0.60;;;14.70;85.70;;;;;;6223525;22;20000;-75
2023/10/29 12:15:47;;;;;;;2.22;0.55;;;14.80;85.50;;;;;;6228651;22;20002;-75
2023/10/29 12:18:21;;;;;;;1.98;0.68;;;15.00;85.20;;;;;;6227600;22;19996;-75
2023/10/29 12:20:48;;;;;;;0.65;0.52;;;15.10;84.70;;;;;;6258157;22;20007;-76
2023/10/29 12:23:14;;;;;;;1.35;0.40;;;15.20;84.30;;;;;;6230647;22;20368;-76
2023/10/29 12:25:40;;;;;;;1.92;0.40;;;15.40;84.10;;;;;;6198833;22;20028;-75
2023/10/29 12:28:08;;;;;;;0.65;0.38;;;15.30;84.00;;;;;;6223017;22;20004;-77
2023/10/29 12:30:46;;;;;;;1.85;0.50;;;15.20;84.10;;;;;;6199369;22;20358;-76
2023/10/29 12:33:19;;;;;;;0.90;0.40;;;15.10;84.30;;;;;;6248164;22;20012;-76
2023/10/29 12:35:47;;;;;;;1.00;0.50;;;15.10;84.50;;;;;;6205124;22;20018;-75
2023/10/29 12:38:13;;;;;;;1.65;0.57;;;15.10;84.50;;;;;;6227104;22;20015;-75
2023/10/29 12:41:14;;;;;;;2.25;0.55;;;15.10;84.60;;;;;;6238978;22;20506;-76
2023/10/29 12:43:42;;;;;;;1.25;0.38;;;15.30;84.50;;;;;;6228755;22;20099;-77
2023/10/29 12:46:10;;;;;;;2.45;0.50;;;15.30;84.30;;;;;;6255272;22;20039;-75
2023/10/29 12:48:57;;;;;;;2.35;0.65;;;15.50;84.10;;;;;;6220381;22;20018;-75